sensor_id;sensor_type;location;lat;lon;timestamp;P1;durP1;ratioP1;P2;durP2;ratioP2
51764;SDS011;37835;53.256;6.456;2022-12-17T00:02:11;214.93;;;39.67;;
51764;SDS011;37835;53.256;6.456;2022-12-17T00:04:55;159.50;;;37.53;;
51764;SDS011;37835;53.256;6.456;2022-12-17T00:07:40;180.03;;;38.20;;
51764;SDS011;37835;53.256;6.456;2022-12-17T00:10:24;149.00;;;39.67;;
51764;SDS011;37835;53.256;6.456;2022-12-17T00:13:18;203.73;;;39.87;;
51764;SDS011;37835;53.256;6.456;2022-12-17T00:16:03;164.57;;;38.57;;
51764;SDS011;37835;53.256;6.456;2022-12-17T00:18:48;160.87;;;38.97;;
51764;SDS011;37835;53.256;6.456;2022-12-17T00:21:32;161.83;;;40.50;;
51764;SDS011;37835;53.256;6.456;2022-12-17T00:24:17;191.10;;;41.97;;
51764;SDS011;37835;53.256;6.456;2022-12-17T00:27:01;163.57;;;41.10;;
51764;SDS011;37835;53.256;6.456;2022-12-17T00:29:45;200.80;;;42.13;;
51764;SDS011;37835;53.256;6.456;2022-12-17T00:32:30;154.77;;;40.27;;
51764;SDS011;37835;53.256;6.456;2022-12-17T00:35:14;226.60;;;41.17;;
51764;SDS011;37835;53.256;6.456;2022-12-17T00:37:58;133.77;;;42.77;;
51764;SDS011;37835;53.256;6.456;2022-12-17T00:40:43;153.60;;;43.60;;
51764;SDS011;37835;53.256;6.456;2022-12-17T00:43:27;156.23;;;43.57;;
51764;SDS011;37835;53.256;6.456;2022-12-17T00:46:12;181.57;;;45.00;;
51764;SDS011;37835;53.256;6.456;2022-12-17T00:48:57;145.90;;;44.03;;
51764;SDS011;37835;53.256;6.456;2022-12-17T00:51:41;173.37;;;48.00;;
51764;SDS011;37835;53.256;6.456;2022-12-17T00:54:25;177.83;;;47.50;;
51764;SDS011;37835;53.256;6.456;2022-12-17T00:57:10;157.10;;;49.00;;
51764;SDS011;37835;53.256;6.456;2022-12-17T00:59:54;157.13;;;49.90;;
51764;SDS011;37835;53.256;6.456;2022-12-17T01:02:39;152.73;;;48.97;;
51764;SDS011;37835;53.256;6.456;2022-12-17T01:05:23;144.13;;;47.80;;
51764;SDS011;37835;53.256;6.456;2022-12-17T01:08:08;157.07;;;48.30;;
51764;SDS011;37835;53.256;6.456;2022-12-17T01:11:00;154.90;;;46.33;;
51764;SDS011;37835;53.256;6.456;2022-12-17T01:13:46;150.77;;;45.60;;
51764;SDS011;37835;53.256;6.456;2022-12-17T01:16:31;144.10;;;46.60;;
51764;SDS011;37835;53.256;6.456;2022-12-17T01:19:15;145.80;;;45.23;;
51764;SDS011;37835;53.256;6.456;2022-12-17T01:22:00;156.10;;;46.30;;
51764;SDS011;37835;53.256;6.456;2022-12-17T01:24:44;171.67;;;45.67;;
51764;SDS011;37835;53.256;6.456;2022-12-17T01:27:29;154.77;;;45.83;;
51764;SDS011;37835;53.256;6.456;2022-12-17T01:30:13;129.77;;;45.43;;
51764;SDS011;37835;53.256;6.456;2022-12-17T01:33:01;151.03;;;46.03;;
51764;SDS011;37835;53.256;6.456;2022-12-17T01:35:45;153.93;;;47.20;;
51764;SDS011;37835;53.256;6.456;2022-12-17T01:38:30;152.77;;;46.07;;
51764;SDS011;37835;53.256;6.456;2022-12-17T01:41:18;168.50;;;47.67;;
51764;SDS011;37835;53.256;6.456;2022-12-17T01:47:32;156.80;;;48.10;;
51764;SDS011;37835;53.256;6.456;2022-12-17T01:50:17;155.10;;;49.70;;
51764;SDS011;37835;53.256;6.456;2022-12-17T01:53:03;138.97;;;47.87;;
51764;SDS011;37835;53.256;6.456;2022-12-17T01:55:49;163.70;;;48.30;;
51764;SDS011;37835;53.256;6.456;2022-12-17T01:58:34;163.67;;;52.03;;
51764;SDS011;37835;53.256;6.456;2022-12-17T02:01:19;146.20;;;49.13;;
51764;SDS011;37835;53.256;6.456;2022-12-17T02:04:03;151.47;;;48.37;;
51764;SDS011;37835;53.256;6.456;2022-12-17T02:07:10;147.20;;;49.13;;
51764;SDS011;37835;53.256;6.456;2022-12-17T02:10:05;149.93;;;47.57;;
51764;SDS011;37835;53.256;6.456;2022-12-17T02:13:08;146.07;;;48.37;;
51764;SDS011;37835;53.256;6.456;2022-12-17T02:15:59;154.43;;;49.85;;
51764;SDS011;37835;53.256;6.456;2022-12-17T02:19:01;157.07;;;50.00;;
51764;SDS011;37835;53.256;6.456;2022-12-17T02:21:56;139.03;;;47.07;;
51764;SDS011;37835;53.256;6.456;2022-12-17T02:24:52;151.82;;;49.22;;
51764;SDS011;37835;53.256;6.456;2022-12-17T02:30:24;134.10;;;45.30;;
51764;SDS011;37835;53.256;6.456;2022-12-17T02:33:09;137.10;;;46.93;;
51764;SDS011;37835;53.256;6.456;2022-12-17T02:35:56;130.77;;;46.03;;
51764;SDS011;37835;53.256;6.456;2022-12-17T02:38:45;139.17;;;47.30;;
51764;SDS011;37835;53.256;6.456;2022-12-17T02:41:31;143.37;;;48.67;;
51764;SDS011;37835;53.256;6.456;2022-12-17T02:44:24;157.17;;;50.03;;
51764;SDS011;37835;53.256;6.456;2022-12-17T02:47:10;140.03;;;48.57;;
51764;SDS011;37835;53.256;6.456;2022-12-17T02:49:55;144.10;;;49.73;;
51764;SDS011;37835;53.256;6.456;2022-12-17T02:52:41;135.70;;;47.10;;
51764;SDS011;37835;53.256;6.456;2022-12-17T02:55:29;134.00;;;46.30;;
51764;SDS011;37835;53.256;6.456;2022-12-17T02:58:14;129.87;;;46.23;;
51764;SDS011;37835;53.256;6.456;2022-12-17T03:00:58;122.13;;;45.80;;
51764;SDS011;37835;53.256;6.456;2022-12-17T03:03:42;118.77;;;44.50;;
51764;SDS011;37835;53.256;6.456;2022-12-17T03:06:27;118.87;;;45.00;;
51764;SDS011;37835;53.256;6.456;2022-12-17T03:09:11;126.43;;;45.90;;
51764;SDS011;37835;53.256;6.456;2022-12-17T03:11:56;110.53;;;43.03;;
51764;SDS011;37835;53.256;6.456;2022-12-17T03:14:40;115.03;;;44.30;;
51764;SDS011;37835;53.256;6.456;2022-12-17T03:17:24;120.03;;;44.17;;
51764;SDS011;37835;53.256;6.456;2022-12-17T03:20:09;117.73;;;44.13;;
51764;SDS011;37835;53.256;6.456;2022-12-17T03:23:00;109.17;;;43.90;;
51764;SDS011;37835;53.256;6.456;2022-12-17T03:25:45;109.45;;;42.45;;
51764;SDS011;37835;53.256;6.456;2022-12-17T03:28:29;116.43;;;43.07;;
51764;SDS011;37835;53.256;6.456;2022-12-17T03:31:14;113.33;;;43.67;;
51764;SDS011;37835;53.256;6.456;2022-12-17T03:33:58;107.53;;;43.57;;
51764;SDS011;37835;53.256;6.456;2022-12-17T03:36:43;110.83;;;42.77;;
51764;SDS011;37835;53.256;6.456;2022-12-17T03:39:27;105.40;;;42.93;;
51764;SDS011;37835;53.256;6.456;2022-12-17T03:42:11;104.67;;;43.63;;
51764;SDS011;37835;53.256;6.456;2022-12-17T03:44:56;111.90;;;44.47;;
51764;SDS011;37835;53.256;6.456;2022-12-17T03:47:40;113.40;;;44.07;;
51764;SDS011;37835;53.256;6.456;2022-12-17T03:50:24;110.37;;;43.10;;
51764;SDS011;37835;53.256;6.456;2022-12-17T03:53:09;104.93;;;42.57;;
51764;SDS011;37835;53.256;6.456;2022-12-17T03:55:53;114.87;;;44.70;;
51764;SDS011;37835;53.256;6.456;2022-12-17T03:58:37;117.33;;;44.97;;
51764;SDS011;37835;53.256;6.456;2022-12-17T04:01:22;104.27;;;42.90;;
51764;SDS011;37835;53.256;6.456;2022-12-17T04:04:07;113.23;;;44.90;;
51764;SDS011;37835;53.256;6.456;2022-12-17T04:06:51;108.70;;;44.13;;
51764;SDS011;37835;53.256;6.456;2022-12-17T04:09:35;102.17;;;43.07;;
51764;SDS011;37835;53.256;6.456;2022-12-17T04:12:20;97.03;;;41.70;;
51764;SDS011;37835;53.256;6.456;2022-12-17T04:15:04;107.50;;;44.40;;
51764;SDS011;37835;53.256;6.456;2022-12-17T04:17:49;114.87;;;45.27;;
51764;SDS011;37835;53.256;6.456;2022-12-17T04:20:33;110.30;;;45.07;;
51764;SDS011;37835;53.256;6.456;2022-12-17T04:23:17;112.57;;;44.37;;
51764;SDS011;37835;53.256;6.456;2022-12-17T04:26:02;113.87;;;45.80;;
51764;SDS011;37835;53.256;6.456;2022-12-17T04:28:46;114.50;;;44.60;;
51764;SDS011;37835;53.256;6.456;2022-12-17T04:31:30;109.43;;;44.37;;
51764;SDS011;37835;53.256;6.456;2022-12-17T04:34:15;103.20;;;42.10;;
51764;SDS011;37835;53.256;6.456;2022-12-17T04:36:59;97.40;;;42.07;;
51764;SDS011;37835;53.256;6.456;2022-12-17T04:39:43;110.43;;;44.50;;
51764;SDS011;37835;53.256;6.456;2022-12-17T04:42:27;101.13;;;43.90;;
51764;SDS011;37835;53.256;6.456;2022-12-17T04:45:11;98.63;;;44.20;;
51764;SDS011;37835;53.256;6.456;2022-12-17T04:48:02;112.03;;;44.13;;
51764;SDS011;37835;53.256;6.456;2022-12-17T04:50:48;106.37;;;43.93;;
51764;SDS011;37835;53.256;6.456;2022-12-17T04:53:32;114.20;;;45.60;;
51764;SDS011;37835;53.256;6.456;2022-12-17T04:56:17;114.27;;;45.63;;
51764;SDS011;37835;53.256;6.456;2022-12-17T04:59:02;109.30;;;45.00;;
51764;SDS011;37835;53.256;6.456;2022-12-17T05:01:46;117.37;;;47.07;;
51764;SDS011;37835;53.256;6.456;2022-12-17T05:04:30;107.50;;;44.23;;
51764;SDS011;37835;53.256;6.456;2022-12-17T05:07:15;116.60;;;45.83;;
51764;SDS011;37835;53.256;6.456;2022-12-17T05:09:59;119.13;;;47.77;;
51764;SDS011;37835;53.256;6.456;2022-12-17T05:12:44;112.93;;;47.13;;
51764;SDS011;37835;53.256;6.456;2022-12-17T05:15:28;109.93;;;45.87;;
51764;SDS011;37835;53.256;6.456;2022-12-17T05:18:12;114.43;;;47.77;;
51764;SDS011;37835;53.256;6.456;2022-12-17T05:20:57;107.63;;;45.00;;
51764;SDS011;37835;53.256;6.456;2022-12-17T05:23:41;108.40;;;45.07;;
51764;SDS011;37835;53.256;6.456;2022-12-17T05:26:26;104.77;;;45.40;;
51764;SDS011;37835;53.256;6.456;2022-12-17T05:29:11;103.67;;;45.47;;
51764;SDS011;37835;53.256;6.456;2022-12-17T05:31:55;111.30;;;45.37;;
51764;SDS011;37835;53.256;6.456;2022-12-17T05:34:59;109.23;;;46.20;;
51764;SDS011;37835;53.256;6.456;2022-12-17T05:37:43;100.93;;;44.63;;
51764;SDS011;37835;53.256;6.456;2022-12-17T05:40:28;103.67;;;44.87;;
51764;SDS011;37835;53.256;6.456;2022-12-17T05:43:12;104.20;;;44.50;;
51764;SDS011;37835;53.256;6.456;2022-12-17T05:45:56;99.80;;;43.57;;
51764;SDS011;37835;53.256;6.456;2022-12-17T05:48:40;104.00;;;45.13;;
51764;SDS011;37835;53.256;6.456;2022-12-17T05:51:25;95.73;;;42.93;;
51764;SDS011;37835;53.256;6.456;2022-12-17T05:54:09;94.30;;;44.10;;
51764;SDS011;37835;53.256;6.456;2022-12-17T05:56:54;98.03;;;44.03;;
51764;SDS011;37835;53.256;6.456;2022-12-17T05:59:38;97.83;;;43.30;;
51764;SDS011;37835;53.256;6.456;2022-12-17T06:02:23;89.47;;;41.43;;
51764;SDS011;37835;53.256;6.456;2022-12-17T06:05:08;94.73;;;42.40;;
51764;SDS011;37835;53.256;6.456;2022-12-17T06:07:52;94.63;;;43.80;;
51764;SDS011;37835;53.256;6.456;2022-12-17T06:10:43;90.73;;;42.33;;
51764;SDS011;37835;53.256;6.456;2022-12-17T06:13:28;85.63;;;40.20;;
51764;SDS011;37835;53.256;6.456;2022-12-17T06:16:12;96.67;;;42.27;;
51764;SDS011;37835;53.256;6.456;2022-12-17T06:18:56;98.43;;;43.43;;
51764;SDS011;37835;53.256;6.456;2022-12-17T06:21:41;92.90;;;41.90;;
51764;SDS011;37835;53.256;6.456;2022-12-17T06:24:25;86.57;;;41.77;;
51764;SDS011;37835;53.256;6.456;2022-12-17T06:27:09;95.70;;;43.63;;
51764;SDS011;37835;53.256;6.456;2022-12-17T06:29:54;91.27;;;41.17;;
51764;SDS011;37835;53.256;6.456;2022-12-17T06:32:38;99.10;;;42.93;;
51764;SDS011;37835;53.256;6.456;2022-12-17T06:35:22;91.33;;;42.07;;
51764;SDS011;37835;53.256;6.456;2022-12-17T06:38:07;95.73;;;43.77;;
51764;SDS011;37835;53.256;6.456;2022-12-17T06:40:51;95.37;;;42.13;;
51764;SDS011;37835;53.256;6.456;2022-12-17T06:43:36;95.27;;;41.13;;
51764;SDS011;37835;53.256;6.456;2022-12-17T06:46:20;94.70;;;42.87;;
51764;SDS011;37835;53.256;6.456;2022-12-17T06:49:04;95.97;;;42.50;;
51764;SDS011;37835;53.256;6.456;2022-12-17T06:51:48;93.87;;;43.07;;
51764;SDS011;37835;53.256;6.456;2022-12-17T06:54:33;96.83;;;42.37;;
51764;SDS011;37835;53.256;6.456;2022-12-17T06:57:17;95.63;;;42.37;;
51764;SDS011;37835;53.256;6.456;2022-12-17T07:00:02;93.37;;;42.73;;
51764;SDS011;37835;53.256;6.456;2022-12-17T07:02:47;100.93;;;44.23;;
51764;SDS011;37835;53.256;6.456;2022-12-17T07:05:32;93.87;;;43.67;;
51764;SDS011;37835;53.256;6.456;2022-12-17T07:08:16;95.23;;;44.33;;
51764;SDS011;37835;53.256;6.456;2022-12-17T07:11:00;92.40;;;41.63;;
51764;SDS011;37835;53.256;6.456;2022-12-17T07:13:45;96.90;;;44.13;;
51764;SDS011;37835;53.256;6.456;2022-12-17T07:16:29;98.07;;;44.53;;
51764;SDS011;37835;53.256;6.456;2022-12-17T07:19:13;97.30;;;44.07;;
51764;SDS011;37835;53.256;6.456;2022-12-17T07:21:58;101.93;;;45.40;;
51764;SDS011;37835;53.256;6.456;2022-12-17T07:24:42;94.07;;;44.73;;
51764;SDS011;37835;53.256;6.456;2022-12-17T07:27:27;93.50;;;44.00;;
51764;SDS011;37835;53.256;6.456;2022-12-17T07:30:11;98.07;;;44.67;;
51764;SDS011;37835;53.256;6.456;2022-12-17T07:32:59;90.10;;;43.50;;
51764;SDS011;37835;53.256;6.456;2022-12-17T07:35:44;90.30;;;42.40;;
51764;SDS011;37835;53.256;6.456;2022-12-17T07:38:28;99.63;;;44.97;;
51764;SDS011;37835;53.256;6.456;2022-12-17T07:41:13;101.57;;;45.27;;
51764;SDS011;37835;53.256;6.456;2022-12-17T07:43:57;96.40;;;44.97;;
51764;SDS011;37835;53.256;6.456;2022-12-17T07:46:41;90.57;;;44.77;;
51764;SDS011;37835;53.256;6.456;2022-12-17T07:49:25;94.20;;;44.53;;
51764;SDS011;37835;53.256;6.456;2022-12-17T07:52:10;98.30;;;44.93;;
51764;SDS011;37835;53.256;6.456;2022-12-17T07:54:54;96.73;;;44.37;;
51764;SDS011;37835;53.256;6.456;2022-12-17T07:57:38;94.53;;;43.13;;
51764;SDS011;37835;53.256;6.456;2022-12-17T08:00:23;100.13;;;44.90;;
51764;SDS011;37835;53.256;6.456;2022-12-17T08:03:07;91.37;;;43.00;;
51764;SDS011;37835;53.256;6.456;2022-12-17T08:06:12;102.80;;;46.37;;
51764;SDS011;37835;53.256;6.456;2022-12-17T08:08:56;95.50;;;44.40;;
51764;SDS011;37835;53.256;6.456;2022-12-17T08:11:40;95.70;;;44.67;;
51764;SDS011;37835;53.256;6.456;2022-12-17T08:14:41;104.43;;;45.40;;
51764;SDS011;37835;53.256;6.456;2022-12-17T08:17:25;102.80;;;44.67;;
51764;SDS011;37835;53.256;6.456;2022-12-17T08:20:09;100.43;;;45.47;;
51764;SDS011;37835;53.256;6.456;2022-12-17T08:23:03;102.10;;;45.33;;
51764;SDS011;37835;53.256;6.456;2022-12-17T08:25:47;103.40;;;44.87;;
51764;SDS011;37835;53.256;6.456;2022-12-17T08:28:32;95.37;;;42.70;;
51764;SDS011;37835;53.256;6.456;2022-12-17T08:31:16;101.77;;;44.50;;
51764;SDS011;37835;53.256;6.456;2022-12-17T08:34:01;100.27;;;44.80;;
51764;SDS011;37835;53.256;6.456;2022-12-17T08:36:45;103.73;;;44.13;;
51764;SDS011;37835;53.256;6.456;2022-12-17T08:39:30;96.57;;;43.13;;
51764;SDS011;37835;53.256;6.456;2022-12-17T08:42:14;96.17;;;43.63;;
51764;SDS011;37835;53.256;6.456;2022-12-17T08:44:58;99.30;;;44.13;;
51764;SDS011;37835;53.256;6.456;2022-12-17T08:47:42;105.37;;;45.23;;
51764;SDS011;37835;53.256;6.456;2022-12-17T08:50:27;101.80;;;44.30;;
51764;SDS011;37835;53.256;6.456;2022-12-17T08:53:11;97.17;;;42.43;;
51764;SDS011;37835;53.256;6.456;2022-12-17T08:55:55;100.70;;;43.70;;
51764;SDS011;37835;53.256;6.456;2022-12-17T08:58:39;101.13;;;43.73;;
51764;SDS011;37835;53.256;6.456;2022-12-17T09:01:24;106.47;;;44.33;;
51764;SDS011;37835;53.256;6.456;2022-12-17T09:04:08;104.03;;;44.90;;
51764;SDS011;37835;53.256;6.456;2022-12-17T09:06:52;101.07;;;44.50;;
51764;SDS011;37835;53.256;6.456;2022-12-17T09:09:37;101.83;;;43.23;;
51764;SDS011;37835;53.256;6.456;2022-12-17T09:12:21;101.57;;;44.30;;
51764;SDS011;37835;53.256;6.456;2022-12-17T09:15:06;102.33;;;43.13;;
51764;SDS011;37835;53.256;6.456;2022-12-17T09:17:57;100.63;;;44.15;;
51764;SDS011;37835;53.256;6.456;2022-12-17T09:20:42;106.03;;;44.63;;
51764;SDS011;37835;53.256;6.456;2022-12-17T09:23:26;106.17;;;43.77;;
51764;SDS011;37835;53.256;6.456;2022-12-17T09:26:10;105.23;;;43.57;;
51764;SDS011;37835;53.256;6.456;2022-12-17T09:28:55;98.30;;;41.10;;
51764;SDS011;37835;53.256;6.456;2022-12-17T09:31:39;103.17;;;42.07;;
51764;SDS011;37835;53.256;6.456;2022-12-17T09:34:23;104.97;;;42.83;;
51764;SDS011;37835;53.256;6.456;2022-12-17T09:37:08;112.73;;;44.97;;
51764;SDS011;37835;53.256;6.456;2022-12-17T09:39:52;108.30;;;43.43;;
51764;SDS011;37835;53.256;6.456;2022-12-17T09:42:38;108.07;;;43.40;;
51764;SDS011;37835;53.256;6.456;2022-12-17T09:45:39;103.90;;;43.58;;
51764;SDS011;37835;53.256;6.456;2022-12-17T09:51:32;107.20;;;43.77;;
51764;SDS011;37835;53.256;6.456;2022-12-17T09:54:36;107.57;;;44.53;;
51764;SDS011;37835;53.256;6.456;2022-12-17T09:57:35;108.50;;;43.63;;
51764;SDS011;37835;53.256;6.456;2022-12-17T10:00:21;110.70;;;44.23;;
51764;SDS011;37835;53.256;6.456;2022-12-17T10:03:11;107.07;;;44.37;;
51764;SDS011;37835;53.256;6.456;2022-12-17T10:05:59;106.53;;;42.90;;
51764;SDS011;37835;53.256;6.456;2022-12-17T10:08:58;107.37;;;44.57;;
51764;SDS011;37835;53.256;6.456;2022-12-17T10:11:43;113.23;;;43.97;;
51764;SDS011;37835;53.256;6.456;2022-12-17T10:14:27;111.40;;;44.47;;
51764;SDS011;37835;53.256;6.456;2022-12-17T10:17:16;106.23;;;43.67;;
51764;SDS011;37835;53.256;6.456;2022-12-17T10:23:22;104.47;;;43.73;;
51764;SDS011;37835;53.256;6.456;2022-12-17T10:26:18;103.67;;;42.67;;
51764;SDS011;37835;53.256;6.456;2022-12-17T10:29:08;110.90;;;44.07;;
51764;SDS011;37835;53.256;6.456;2022-12-17T10:35:16;101.67;;;43.20;;
51764;SDS011;37835;53.256;6.456;2022-12-17T10:38:23;112.27;;;44.63;;
51764;SDS011;37835;53.256;6.456;2022-12-17T10:41:19;109.22;;;44.42;;
51764;SDS011;37835;53.256;6.456;2022-12-17T10:44:21;101.97;;;41.80;;
51764;SDS011;37835;53.256;6.456;2022-12-17T10:47:17;104.60;;;43.07;;
51764;SDS011;37835;53.256;6.456;2022-12-17T10:50:16;105.30;;;43.77;;
51764;SDS011;37835;53.256;6.456;2022-12-17T10:53:22;100.67;;;42.93;;
51764;SDS011;37835;53.256;6.456;2022-12-17T10:56:17;105.33;;;43.87;;
51764;SDS011;37835;53.256;6.456;2022-12-17T10:59:09;105.83;;;43.80;;
51764;SDS011;37835;53.256;6.456;2022-12-17T11:01:56;104.87;;;44.30;;
51764;SDS011;37835;53.256;6.456;2022-12-17T11:04:49;99.43;;;43.90;;
51764;SDS011;37835;53.256;6.456;2022-12-17T11:07:35;99.27;;;42.83;;
51764;SDS011;37835;53.256;6.456;2022-12-17T11:10:24;108.03;;;45.50;;
51764;SDS011;37835;53.256;6.456;2022-12-17T11:13:14;101.47;;;43.67;;
51764;SDS011;37835;53.256;6.456;2022-12-17T11:19:31;97.50;;;42.10;;
51764;SDS011;37835;53.256;6.456;2022-12-17T11:22:42;98.37;;;44.37;;
51764;SDS011;37835;53.256;6.456;2022-12-17T11:25:30;101.23;;;44.43;;
51764;SDS011;37835;53.256;6.456;2022-12-17T11:28:34;106.63;;;47.10;;
51764;SDS011;37835;53.256;6.456;2022-12-17T11:34:15;103.13;;;45.67;;
51764;SDS011;37835;53.256;6.456;2022-12-17T11:37:16;108.70;;;47.63;;
51764;SDS011;37835;53.256;6.456;2022-12-17T11:49:23;100.03;;;44.30;;
51764;SDS011;37835;53.256;6.456;2022-12-17T11:55:07;97.77;;;44.97;;
51764;SDS011;37835;53.256;6.456;2022-12-17T11:58:14;101.10;;;45.87;;
51764;SDS011;37835;53.256;6.456;2022-12-17T12:01:24;97.33;;;45.33;;
51764;SDS011;37835;53.256;6.456;2022-12-17T12:04:16;100.03;;;46.03;;
51764;SDS011;37835;53.256;6.456;2022-12-17T12:07:29;95.13;;;45.90;;
51764;SDS011;37835;53.256;6.456;2022-12-17T12:10:32;100.13;;;46.17;;
51764;SDS011;37835;53.256;6.456;2022-12-17T12:13:28;93.63;;;44.23;;
51764;SDS011;37835;53.256;6.456;2022-12-17T12:19:23;98.20;;;46.77;;
51764;SDS011;37835;53.256;6.456;2022-12-17T12:22:20;92.67;;;44.60;;
51764;SDS011;37835;53.256;6.456;2022-12-17T12:25:33;97.83;;;46.77;;
51764;SDS011;37835;53.256;6.456;2022-12-17T12:31:28;96.00;;;44.77;;
51764;SDS011;37835;53.256;6.456;2022-12-17T12:34:33;96.67;;;46.17;;
51764;SDS011;37835;53.256;6.456;2022-12-17T12:37:20;98.20;;;46.63;;
51764;SDS011;37835;53.256;6.456;2022-12-17T12:43:14;94.67;;;46.37;;
51764;SDS011;37835;53.256;6.456;2022-12-17T12:46:06;96.67;;;46.83;;
51764;SDS011;37835;53.256;6.456;2022-12-17T12:49:42;91.80;;;45.43;;
51764;SDS011;37835;53.256;6.456;2022-12-17T12:52:16;95.83;;;46.00;;
51764;SDS011;37835;53.256;6.456;2022-12-17T12:55:11;92.73;;;45.17;;
51764;SDS011;37835;53.256;6.456;2022-12-17T13:01:08;92.83;;;47.20;;
51764;SDS011;37835;53.256;6.456;2022-12-17T13:03:53;93.73;;;44.90;;
51764;SDS011;37835;53.256;6.456;2022-12-17T13:12:09;89.87;;;45.13;;
51764;SDS011;37835;53.256;6.456;2022-12-17T13:19:46;87.53;;;44.53;;
51764;SDS011;37835;53.256;6.456;2022-12-17T13:24:52;87.00;;;43.33;;
51764;SDS011;37835;53.256;6.456;2022-12-17T13:29:54;89.90;;;43.43;;
51764;SDS011;37835;53.256;6.456;2022-12-17T13:32:21;88.87;;;45.60;;
51764;SDS011;37835;53.256;6.456;2022-12-17T13:37:58;87.23;;;44.93;;
51764;SDS011;37835;53.256;6.456;2022-12-17T13:43:03;86.63;;;44.83;;
51764;SDS011;37835;53.256;6.456;2022-12-17T13:45:28;91.97;;;46.30;;
51764;SDS011;37835;53.256;6.456;2022-12-17T13:47:58;85.30;;;44.67;;
51764;SDS011;37835;53.256;6.456;2022-12-17T13:50:28;85.67;;;43.60;;
51764;SDS011;37835;53.256;6.456;2022-12-17T13:52:54;90.17;;;44.23;;
51764;SDS011;37835;53.256;6.456;2022-12-17T13:55:25;89.57;;;43.40;;
51764;SDS011;37835;53.256;6.456;2022-12-17T13:57:51;88.67;;;44.73;;
51764;SDS011;37835;53.256;6.456;2022-12-17T14:00:19;93.93;;;46.47;;
51764;SDS011;37835;53.256;6.456;2022-12-17T14:02:55;94.50;;;46.93;;
51764;SDS011;37835;53.256;6.456;2022-12-17T14:07:51;101.07;;;48.53;;
51764;SDS011;37835;53.256;6.456;2022-12-17T14:10:18;88.17;;;44.77;;
51764;SDS011;37835;53.256;6.456;2022-12-17T14:12:44;99.00;;;46.97;;
51764;SDS011;37835;53.256;6.456;2022-12-17T14:15:16;91.03;;;46.13;;
51764;SDS011;37835;53.256;6.456;2022-12-17T14:17:48;96.17;;;47.27;;
51764;SDS011;37835;53.256;6.456;2022-12-17T14:20:16;88.10;;;46.23;;
51764;SDS011;37835;53.256;6.456;2022-12-17T14:22:51;91.53;;;45.83;;
51764;SDS011;37835;53.256;6.456;2022-12-17T14:25:23;101.23;;;46.70;;
51764;SDS011;37835;53.256;6.456;2022-12-17T14:27:56;92.10;;;46.30;;
51764;SDS011;37835;53.256;6.456;2022-12-17T14:33:02;96.40;;;46.77;;
51764;SDS011;37835;53.256;6.456;2022-12-17T14:35:29;92.40;;;46.00;;
51764;SDS011;37835;53.256;6.456;2022-12-17T14:37:59;93.40;;;46.10;;
51764;SDS011;37835;53.256;6.456;2022-12-17T14:40:25;95.73;;;46.47;;
51764;SDS011;37835;53.256;6.456;2022-12-17T14:42:52;97.73;;;47.60;;
51764;SDS011;37835;53.256;6.456;2022-12-17T14:45:23;94.43;;;46.75;;
51764;SDS011;37835;53.256;6.456;2022-12-17T14:47:51;97.67;;;46.13;;
51764;SDS011;37835;53.256;6.456;2022-12-17T14:50:29;94.43;;;47.10;;
51764;SDS011;37835;53.256;6.456;2022-12-17T14:53:00;98.13;;;46.07;;
51764;SDS011;37835;53.256;6.456;2022-12-17T14:55:37;94.80;;;46.13;;
51764;SDS011;37835;53.256;6.456;2022-12-17T14:58:16;94.67;;;45.87;;
51764;SDS011;37835;53.256;6.456;2022-12-17T15:03:25;102.70;;;47.40;;
51764;SDS011;37835;53.256;6.456;2022-12-17T15:05:54;99.87;;;47.07;;
51764;SDS011;37835;53.256;6.456;2022-12-17T15:08:23;101.23;;;47.80;;
51764;SDS011;37835;53.256;6.456;2022-12-17T15:10:49;98.70;;;46.07;;
51764;SDS011;37835;53.256;6.456;2022-12-17T15:13:14;100.20;;;46.70;;
51764;SDS011;37835;53.256;6.456;2022-12-17T15:15:40;96.20;;;46.10;;
51764;SDS011;37835;53.256;6.456;2022-12-17T15:18:05;99.53;;;46.43;;
51764;SDS011;37835;53.256;6.456;2022-12-17T15:20:31;99.10;;;46.07;;
51764;SDS011;37835;53.256;6.456;2022-12-17T15:22:57;100.50;;;46.43;;
51764;SDS011;37835;53.256;6.456;2022-12-17T15:25:22;100.63;;;46.17;;
51764;SDS011;37835;53.256;6.456;2022-12-17T15:27:48;103.47;;;47.73;;
51764;SDS011;37835;53.256;6.456;2022-12-17T15:30:14;99.70;;;45.07;;
51764;SDS011;37835;53.256;6.456;2022-12-17T15:32:41;97.97;;;44.77;;
51764;SDS011;37835;53.256;6.456;2022-12-17T15:35:08;104.30;;;46.63;;
51764;SDS011;37835;53.256;6.456;2022-12-17T15:37:35;105.47;;;47.43;;
51764;SDS011;37835;53.256;6.456;2022-12-17T15:40:01;99.63;;;46.23;;
51764;SDS011;37835;53.256;6.456;2022-12-17T15:42:27;102.07;;;44.60;;
51764;SDS011;37835;53.256;6.456;2022-12-17T15:45:11;101.50;;;44.77;;
51764;SDS011;37835;53.256;6.456;2022-12-17T15:47:37;96.50;;;45.57;;
51764;SDS011;37835;53.256;6.456;2022-12-17T15:50:03;100.03;;;45.10;;
51764;SDS011;37835;53.256;6.456;2022-12-17T15:52:29;100.90;;;45.77;;
51764;SDS011;37835;53.256;6.456;2022-12-17T15:54:54;98.07;;;44.27;;
51764;SDS011;37835;53.256;6.456;2022-12-17T15:57:20;101.43;;;45.47;;
51764;SDS011;37835;53.256;6.456;2022-12-17T15:59:46;95.47;;;43.17;;
51764;SDS011;37835;53.256;6.456;2022-12-17T16:02:11;108.30;;;46.60;;
51764;SDS011;37835;53.256;6.456;2022-12-17T16:04:37;102.27;;;44.47;;
51764;SDS011;37835;53.256;6.456;2022-12-17T16:07:03;106.40;;;44.90;;
51764;SDS011;37835;53.256;6.456;2022-12-17T16:09:29;112.93;;;49.33;;
51764;SDS011;37835;53.256;6.456;2022-12-17T16:11:55;100.97;;;45.60;;
51764;SDS011;37835;53.256;6.456;2022-12-17T16:14:21;106.20;;;44.33;;
51764;SDS011;37835;53.256;6.456;2022-12-17T16:16:48;102.13;;;44.23;;
51764;SDS011;37835;53.256;6.456;2022-12-17T16:19:14;110.27;;;47.17;;
51764;SDS011;37835;53.256;6.456;2022-12-17T16:21:39;103.17;;;44.03;;
51764;SDS011;37835;53.256;6.456;2022-12-17T16:24:05;99.07;;;42.50;;
51764;SDS011;37835;53.256;6.456;2022-12-17T16:26:31;108.13;;;44.37;;
51764;SDS011;37835;53.256;6.456;2022-12-17T16:28:57;105.93;;;43.67;;
51764;SDS011;37835;53.256;6.456;2022-12-17T16:31:23;105.53;;;44.93;;
51764;SDS011;37835;53.256;6.456;2022-12-17T16:33:48;104.27;;;44.40;;
51764;SDS011;37835;53.256;6.456;2022-12-17T16:36:16;106.40;;;44.37;;
51764;SDS011;37835;53.256;6.456;2022-12-17T16:38:47;107.80;;;45.03;;
51764;SDS011;37835;53.256;6.456;2022-12-17T16:41:15;98.40;;;41.97;;
51764;SDS011;37835;53.256;6.456;2022-12-17T16:43:41;107.77;;;43.27;;
51764;SDS011;37835;53.256;6.456;2022-12-17T16:46:24;105.57;;;42.57;;
51764;SDS011;37835;53.256;6.456;2022-12-17T16:48:50;102.67;;;40.77;;
51764;SDS011;37835;53.256;6.456;2022-12-17T16:51:16;102.27;;;41.87;;
51764;SDS011;37835;53.256;6.456;2022-12-17T16:53:43;106.07;;;43.03;;
51764;SDS011;37835;53.256;6.456;2022-12-17T16:56:16;113.50;;;43.93;;
51764;SDS011;37835;53.256;6.456;2022-12-17T16:58:43;108.67;;;43.13;;
51764;SDS011;37835;53.256;6.456;2022-12-17T17:01:10;112.57;;;44.00;;